Time;durP1;ratioP1;P1;durP2;ratioP2;P2;SDS_P1;SDS_P2;PMS_P1;PMS_P2;Temp;Humidity;BMP_temperature;BMP_pressure;BME280_temperature;BME280_humidity;BME280_pressure;Samples;Min_cycle;Max_cycle;Signal;HPM_P1;HPM_P2
2022/09/28 00:00:40;;;;;;;1.57;1.47;;;10.10;99.90;;;;;;5047194;28;20228;-68
2022/09/28 00:03:08;;;;;;;2.37;1.97;;;10.10;99.90;;;;;;5050486;28;20562;-68
2022/09/28 00:05:34;;;;;;;2.53;1.50;;;10.10;99.90;;;;;;5050364;28;20228;-68
2022/09/28 00:08:01;;;;;;;2.63;1.87;;;10.10;99.90;;;;;;5050141;28;20737;-68
2022/09/28 00:10:28;;;;;;;1.90;1.70;;;10.00;99.90;;;;;;5049353;28;20227;-68
2022/09/28 00:12:55;;;;;;;2.13;1.93;;;10.00;99.90;;;;;;5049496;28;20575;-68
2022/09/28 00:15:23;;;;;;;1.97;1.63;;;9.90;99.90;;;;;;5045364;28;20671;-68
2022/09/28 00:17:51;;;;;;;1.93;1.83;;;9.90;99.90;;;;;;5030478;28;20216;-69
2022/09/28 00:20:18;;;;;;;1.70;1.60;;;9.90;99.90;;;;;;5043140;28;20574;-69
2022/09/28 00:22:45;;;;;;;2.00;1.90;;;9.90;99.90;;;;;;5050104;28;20204;-69
2022/09/28 00:25:12;;;;;;;2.10;2.00;;;9.90;99.90;;;;;;5049663;28;20251;-68
2022/09/28 00:27:39;;;;;;;1.80;1.70;;;9.80;99.90;;;;;;5049814;28;20619;-69
2022/09/28 00:30:07;;;;;;;2.10;2.00;;;9.80;99.90;;;;;;5050169;28;20204;-69
2022/09/28 00:32:33;;;;;;;2.10;2.00;;;9.80;99.90;;;;;;5049802;28;20204;-69
2022/09/28 00:35:02;;;;;;;1.93;1.83;;;9.70;99.90;;;;;;5049968;28;20212;-69
2022/09/28 00:37:28;;;;;;;1.80;1.70;;;9.70;99.90;;;;;;5050197;28;20204;-69
2022/09/28 00:39:55;;;;;;;2.50;2.20;;;9.80;99.90;;;;;;5049912;28;20581;-69
2022/09/28 00:42:24;;;;;;;1.90;1.90;;;9.80;99.90;;;;;;5036898;28;20197;-69
2022/09/28 00:44:51;;;;;;;2.23;2.13;;;9.80;99.90;;;;;;5029928;28;20229;-69
2022/09/28 00:47:43;;;;;;;2.17;2.07;;;9.80;99.90;;;;;;5029667;28;20216;-69
2022/09/28 00:50:20;;;;;;;2.77;1.93;;;9.80;99.90;;;;;;5047645;28;20497;-69
2022/09/28 00:52:52;;;;;;;2.17;2.07;;;9.80;99.90;;;;;;5044701;28;20208;-69
2022/09/28 00:55:21;;;;;;;2.40;2.13;;;9.70;99.90;;;;;;5054655;28;20211;-69
2022/09/28 00:57:52;;;;;;;2.17;2.07;;;9.70;99.90;;;;;;5069600;28;20203;-69
2022/09/28 01:00:20;;;;;;;2.30;2.20;;;9.80;99.90;;;;;;5064031;28;20281;-69
2022/09/28 01:02:48;;;;;;;2.30;2.10;;;9.80;99.90;;;;;;5049394;28;20204;-69
2022/09/28 01:05:17;;;;;;;2.27;2.17;;;9.80;99.90;;;;;;5049577;28;20232;-69
2022/09/28 01:07:45;;;;;;;2.20;2.10;;;9.90;99.90;;;;;;5049341;28;20228;-69
2022/09/28 01:10:12;;;;;;;2.10;2.00;;;9.90;99.90;;;;;;5048962;28;20208;-69
2022/09/28 01:12:39;;;;;;;3.90;2.73;;;9.90;99.90;;;;;;5049082;28;20208;-68
2022/09/28 01:15:06;;;;;;;2.13;2.03;;;10.00;99.90;;;;;;5049489;28;20219;-68
2022/09/28 01:17:48;;;;;;;1.90;1.80;;;10.00;99.90;;;;;;5049652;28;20231;-68
2022/09/28 01:20:27;;;;;;;2.20;2.10;;;10.00;99.90;;;;;;5049206;28;20203;-68
2022/09/28 01:23:38;;;;;;;1.83;1.73;;;10.10;99.90;;;;;;5046652;28;20629;-68
2022/09/28 01:26:22;;;;;;;1.87;1.77;;;10.10;99.90;;;;;;5068215;28;20243;-68
2022/09/28 01:28:54;;;;;;;1.87;1.77;;;10.00;99.90;;;;;;5068999;28;20203;-68
2022/09/28 01:31:25;;;;;;;2.00;1.90;;;9.90;99.90;;;;;;5067437;28;20233;-68
2022/09/28 01:33:59;;;;;;;1.70;1.60;;;9.90;99.90;;;;;;5028975;28;20193;-68
2022/09/28 01:36:30;;;;;;;2.30;2.20;;;9.90;99.90;;;;;;5029357;28;20197;-68
2022/09/28 01:39:02;;;;;;;1.70;1.70;;;10.00;99.90;;;;;;5028855;28;20197;-68
2022/09/28 01:41:32;;;;;;;2.53;1.73;;;10.10;99.90;;;;;;5029112;28;20204;-68
2022/09/28 01:44:02;;;;;;;2.80;1.87;;;10.10;99.90;;;;;;5028919;28;20192;-68
2022/09/28 01:46:33;;;;;;;2.00;1.90;;;10.20;99.90;;;;;;5047751;28;20228;-68
2022/09/28 01:49:07;;;;;;;2.00;1.90;;;10.30;99.90;;;;;;5040846;28;20201;-68
2022/09/28 01:51:39;;;;;;;1.70;1.70;;;10.30;99.90;;;;;;5042113;28;20711;-68
2022/09/28 01:54:11;;;;;;;2.00;1.90;;;10.20;99.90;;;;;;5033791;28;20197;-68
2022/09/28 01:56:44;;;;;;;2.00;1.90;;;10.10;99.90;;;;;;5062173;28;20200;-68
2022/09/28 01:59:15;;;;;;;2.23;2.13;;;10.00;99.90;;;;;;5048267;28;20193;-68
2022/09/28 02:01:47;;;;;;;2.00;1.90;;;10.00;99.90;;;;;;5045135;28;20213;-70
2022/09/28 02:04:18;;;;;;;4.03;2.13;;;10.00;99.90;;;;;;5031685;28;20215;-70
2022/09/28 02:06:50;;;;;;;5.03;2.00;;;10.10;99.90;;;;;;5047911;28;20244;-70
2022/09/28 02:09:22;;;;;;;2.10;2.00;;;10.10;99.90;;;;;;5048336;28;20254;-70
2022/09/28 02:11:55;;;;;;;1.97;1.87;;;10.20;99.90;;;;;;5047158;28;20254;-70
2022/09/28 02:14:23;;;;;;;2.20;2.10;;;10.20;99.90;;;;;;5048352;28;20203;-70
2022/09/28 02:16:53;;;;;;;7.23;2.30;;;10.20;99.90;;;;;;5048158;28;20204;-70
2022/09/28 02:19:23;;;;;;;2.00;1.90;;;10.10;99.90;;;;;;5047921;28;20678;-70
2022/09/28 02:21:57;;;;;;;1.97;1.87;;;10.00;99.90;;;;;;5047671;28;20188;-70
2022/09/28 02:24:32;;;;;;;2.53;2.27;;;10.10;99.90;;;;;;5052181;28;20249;-71
2022/09/28 02:27:07;;;;;;;2.40;2.30;;;10.10;99.90;;;;;;5067424;28;20744;-71
2022/09/28 02:29:34;;;;;;;2.13;2.03;;;10.10;99.90;;;;;;5061894;28;20191;-70
2022/09/28 02:32:01;;;;;;;2.60;2.40;;;10.00;99.90;;;;;;5043181;28;20203;-70
2022/09/28 02:34:28;;;;;;;2.20;2.10;;;10.00;99.90;;;;;;5028064;28;20664;-71
2022/09/28 02:36:55;;;;;;;2.57;2.47;;;9.90;99.90;;;;;;5027831;28;20424;-71
2022/09/28 02:39:22;;;;;;;2.50;2.40;;;9.80;99.90;;;;;;5027840;28;20215;-71
2022/09/28 02:41:58;;;;;;;3.27;2.40;;;9.80;99.90;;;;;;5028751;28;20686;-69
2022/09/28 02:44:49;;;;;;;2.53;2.43;;;9.70;99.90;;;;;;5027738;28;20659;-70
2022/09/28 02:47:27;;;;;;;3.03;2.87;;;9.70;99.90;;;;;;5027693;28;20229;-70
2022/09/28 02:49:59;;;;;;;2.53;2.43;;;9.70;99.90;;;;;;5042584;28;20552;-70
2022/09/28 02:52:41;;;;;;;2.80;2.70;;;9.70;99.90;;;;;;5039529;28;20200;-70
2022/09/28 02:55:24;;;;;;;2.93;2.70;;;9.80;99.90;;;;;;5058496;28;20203;-70
2022/09/28 02:58:12;;;;;;;3.00;2.90;;;9.80;99.90;;;;;;5067357;28;20655;-69
2022/09/28 03:00:45;;;;;;;3.17;2.87;;;9.80;99.90;;;;;;5062363;28;20212;-69
2022/09/28 03:03:20;;;;;;;2.90;2.70;;;9.70;99.90;;;;;;5047444;28;20207;-68
2022/09/28 03:05:56;;;;;;;2.50;2.40;;;9.80;99.90;;;;;;5046809;28;20705;-69
2022/09/28 03:08:27;;;;;;;2.93;2.83;;;9.80;99.90;;;;;;5047648;28;20552;-70
2022/09/28 03:10:59;;;;;;;2.80;2.70;;;9.80;99.90;;;;;;5047058;28;20207;-69
2022/09/28 03:13:26;;;;;;;2.87;2.73;;;9.70;99.90;;;;;;5046562;28;20200;-70
2022/09/28 03:16:09;;;;;;;3.27;3.07;;;9.60;99.90;;;;;;5047031;28;20219;-69
2022/09/28 03:18:36;;;;;;;3.00;2.80;;;9.60;99.90;;;;;;5046871;28;20206;-70
2022/09/28 03:21:04;;;;;;;2.97;2.83;;;9.50;99.90;;;;;;5046997;28;20204;-69
2022/09/28 03:23:31;;;;;;;3.50;3.20;;;9.60;99.90;;;;;;5028660;28;20628;-69
2022/09/28 03:25:58;;;;;;;3.27;3.07;;;9.50;99.90;;;;;;5062565;28;20604;-70
2022/09/28 03:28:25;;;;;;;3.40;3.10;;;9.60;99.90;;;;;;5067094;28;20206;-69
2022/09/28 03:30:52;;;;;;;3.40;3.20;;;9.60;99.90;;;;;;5066542;28;20737;-69
2022/09/28 03:33:20;;;;;;;3.80;3.60;;;9.60;99.90;;;;;;5050038;28;20211;-68
2022/09/28 03:35:48;;;;;;;3.70;3.33;;;9.60;99.90;;;;;;5047534;28;20215;-69
2022/09/28 03:38:15;;;;;;;3.53;3.33;;;9.60;99.90;;;;;;5052735;28;20208;-69
2022/09/28 03:40:42;;;;;;;3.70;3.40;;;9.70;99.90;;;;;;5051065;28;20214;-69
2022/09/28 03:43:09;;;;;;;3.60;3.40;;;9.80;99.90;;;;;;5051203;28;20199;-69
2022/09/28 03:45:35;;;;;;;3.63;3.40;;;9.90;99.90;;;;;;5050926;28;20209;-69
2022/09/28 03:48:02;;;;;;;3.73;3.53;;;9.90;99.90;;;;;;5050956;28;20200;-69
2022/09/28 03:50:30;;;;;;;3.43;3.23;;;10.00;99.90;;;;;;5050848;28;20208;-69
2022/09/28 03:53:02;;;;;;;3.30;3.10;;;10.00;99.90;;;;;;5051079;28;20310;-70
2022/09/28 03:55:29;;;;;;;3.33;3.13;;;10.00;99.90;;;;;;5064729;28;20207;-70
2022/09/28 03:57:56;;;;;;;3.93;3.63;;;10.00;99.90;;;;;;5057432;28;20460;-70
2022/09/28 04:00:23;;;;;;;3.87;3.67;;;10.00;99.90;;;;;;5050624;28;20215;-69
2022/09/28 04:02:49;;;;;;;4.27;3.97;;;9.90;99.90;;;;;;5035334;28;20255;-69
2022/09/28 04:05:16;;;;;;;4.77;4.37;;;9.80;99.90;;;;;;5030719;28;20252;-69
2022/09/28 04:07:44;;;;;;;4.27;3.93;;;9.70;99.90;;;;;;5030498;28;20244;-69
2022/09/28 04:10:11;;;;;;;4.37;4.00;;;9.60;99.90;;;;;;5030529;28;20212;-69
2022/09/28 04:12:37;;;;;;;5.07;3.67;;;9.60;99.90;;;;;;5047784;28;20211;-70
2022/09/28 04:15:05;;;;;;;3.70;3.50;;;9.70;99.90;;;;;;5050692;28;20215;-69
2022/09/28 04:17:33;;;;;;;4.07;3.47;;;9.70;99.90;;;;;;5050603;28;20204;-70
2022/09/28 04:20:01;;;;;;;3.63;3.43;;;9.70;99.90;;;;;;5050163;28;20200;-70
2022/09/28 04:22:28;;;;;;;3.33;3.13;;;9.80;99.90;;;;;;5034963;28;20216;-70
2022/09/28 04:24:56;;;;;;;3.93;3.60;;;9.80;99.90;;;;;;5048245;28;20243;-70
2022/09/28 04:30:08;;;;;;;3.80;3.37;;;9.80;99.90;;;;;;5058423;28;20214;-70
2022/09/28 04:32:35;;;;;;;4.63;3.30;;;9.80;99.90;;;;;;5048625;28;20196;-69
2022/09/28 04:35:02;;;;;;;3.73;3.53;;;9.80;99.90;;;;;;5045162;28;20687;-69
2022/09/28 04:37:30;;;;;;;3.80;3.50;;;9.80;99.90;;;;;;5049815;28;20215;-69
2022/09/28 04:39:58;;;;;;;4.07;3.80;;;9.80;99.90;;;;;;5049863;28;20216;-69
2022/09/28 04:42:24;;;;;;;3.90;3.60;;;9.80;99.90;;;;;;5034146;28;20204;-69
2022/09/28 04:44:51;;;;;;;3.70;3.50;;;9.80;99.90;;;;;;5031550;28;20303;-69
2022/09/28 04:47:18;;;;;;;4.13;3.83;;;9.80;99.90;;;;;;5049315;28;20247;-69
2022/09/28 04:49:45;;;;;;;4.23;3.90;;;9.90;99.90;;;;;;5035654;28;20205;-69
2022/09/28 04:52:11;;;;;;;3.90;3.60;;;9.90;99.90;;;;;;5042754;28;20210;-69
2022/09/28 04:54:38;;;;;;;3.97;3.67;;;9.90;99.90;;;;;;5049476;28;20580;-70
2022/09/28 04:57:06;;;;;;;4.17;3.77;;;9.90;99.90;;;;;;5049619;28;20792;-69
2022/09/28 04:59:34;;;;;;;4.07;3.77;;;9.90;99.90;;;;;;5050023;28;20207;-67
2022/09/28 05:02:00;;;;;;;4.20;3.77;;;9.80;99.90;;;;;;5049542;28;20204;-68
2022/09/28 05:04:27;;;;;;;4.93;4.00;;;9.80;99.90;;;;;;5049593;28;20236;-68
2022/09/28 05:06:54;;;;;;;3.97;3.70;;;9.80;99.90;;;;;;5049310;28;20232;-68
2022/09/28 05:09:21;;;;;;;4.20;3.90;;;9.80;99.90;;;;;;5049444;28;20230;-68
2022/09/28 05:11:49;;;;;;;3.70;3.50;;;9.80;99.90;;;;;;5039324;28;20667;-68
2022/09/28 05:14:18;;;;;;;4.07;3.77;;;9.80;99.90;;;;;;5029516;28;20205;-68
2022/09/28 05:16:45;;;;;;;4.07;3.77;;;9.80;99.90;;;;;;5029492;28;20201;-68
2022/09/28 05:19:12;;;;;;;3.80;3.60;;;9.80;99.90;;;;;;5033364;28;20743;-68
2022/09/28 05:21:39;;;;;;;4.30;3.90;;;9.80;99.90;;;;;;5048856;28;20196;-68
2022/09/28 05:24:07;;;;;;;4.00;3.60;;;9.80;99.90;;;;;;5051521;28;20243;-69
2022/09/28 05:26:34;;;;;;;4.63;3.90;;;9.80;99.90;;;;;;5068657;28;20240;-69
2022/09/28 05:29:01;;;;;;;5.80;4.47;;;9.70;99.90;;;;;;5068795;28;20214;-69
2022/09/28 05:31:31;;;;;;;3.80;3.60;;;9.80;99.90;;;;;;5049970;28;20587;-69
2022/09/28 05:33:58;;;;;;;4.63;4.10;;;9.80;99.90;;;;;;5048321;28;20670;-69
2022/09/28 05:36:25;;;;;;;4.13;3.83;;;9.80;99.90;;;;;;5049321;28;20215;-72
2022/09/28 05:38:52;;;;;;;4.10;3.80;;;9.80;99.90;;;;;;5048913;28;20423;-70
2022/09/28 05:41:19;;;;;;;4.13;3.83;;;9.80;99.90;;;;;;5046397;28;20659;-70
2022/09/28 05:43:46;;;;;;;4.10;3.83;;;9.80;99.90;;;;;;5048949;28;20218;-71
2022/09/28 05:46:13;;;;;;;4.37;4.07;;;9.80;99.90;;;;;;5047209;28;20204;-71
2022/09/28 05:48:41;;;;;;;3.73;3.53;;;9.80;99.90;;;;;;5033037;28;20242;-70
2022/09/28 05:51:09;;;;;;;4.60;4.20;;;9.80;99.90;;;;;;5041413;28;20574;-70
2022/09/28 05:53:35;;;;;;;4.20;3.90;;;9.80;99.90;;;;;;5039785;28;20295;-70
2022/09/28 05:56:02;;;;;;;4.60;4.20;;;9.90;99.90;;;;;;5047998;28;20222;-70
2022/09/28 05:58:29;;;;;;;4.40;4.00;;;9.80;99.90;;;;;;5047500;28;20211;-70
2022/09/28 06:00:56;;;;;;;4.13;3.83;;;9.80;99.90;;;;;;5047464;28;20192;-68
2022/09/28 06:03:23;;;;;;;5.93;4.70;;;9.80;99.90;;;;;;5048384;28;20208;-68
2022/09/28 06:05:51;;;;;;;4.50;4.20;;;9.80;99.90;;;;;;5047987;28;20215;-68
2022/09/28 06:08:18;;;;;;;4.40;4.00;;;9.80;99.90;;;;;;5048271;28;20247;-68
2022/09/28 06:10:45;;;;;;;4.20;3.90;;;9.80;99.90;;;;;;5044348;28;20220;-68
2022/09/28 06:13:12;;;;;;;4.30;4.00;;;9.80;99.90;;;;;;5028010;28;20204;-68
2022/09/28 06:15:41;;;;;;;4.30;4.00;;;9.80;99.90;;;;;;5028223;28;20209;-68
2022/09/28 06:18:12;;;;;;;5.63;4.40;;;9.80;99.90;;;;;;5028121;28;20225;-68
2022/09/28 06:20:40;;;;;;;4.80;4.40;;;9.80;99.90;;;;;;5043833;28;20200;-69
2022/09/28 06:23:09;;;;;;;5.10;4.70;;;9.80;99.90;;;;;;5047424;28;20196;-69
2022/09/28 06:25:36;;;;;;;4.47;4.17;;;9.80;99.90;;;;;;5047401;28;20239;-69
2022/09/28 06:28:06;;;;;;;4.40;4.10;;;9.80;99.90;;;;;;5047557;28;20614;-69
2022/09/28 06:30:37;;;;;;;4.97;4.57;;;9.80;99.90;;;;;;5047717;28;20192;-69
2022/09/28 06:33:04;;;;;;;4.93;4.33;;;9.80;99.90;;;;;;5047906;28;20200;-68
2022/09/28 06:35:32;;;;;;;4.53;4.23;;;9.80;99.90;;;;;;5047991;28;20219;-68
2022/09/28 06:38:00;;;;;;;4.73;4.43;;;9.80;99.90;;;;;;5047585;28;20207;-68
2022/09/28 06:40:28;;;;;;;4.63;4.33;;;9.80;99.90;;;;;;5047614;28;20212;-68
2022/09/28 06:42:56;;;;;;;4.83;4.53;;;9.90;99.90;;;;;;5028727;28;20208;-68
2022/09/28 06:45:24;;;;;;;5.00;4.60;;;9.90;99.90;;;;;;5030778;28;20196;-69
2022/09/28 06:47:54;;;;;;;4.67;4.33;;;9.90;99.90;;;;;;5047076;28;20224;-69
2022/09/28 06:50:20;;;;;;;4.57;4.27;;;10.00;99.90;;;;;;5047531;28;20262;-69
2022/09/28 06:52:51;;;;;;;4.90;4.50;;;10.00;99.90;;;;;;5045887;28;20694;-69
2022/09/28 06:55:17;;;;;;;5.00;4.37;;;10.10;99.90;;;;;;5059307;28;20214;-69
2022/09/28 06:57:46;;;;;;;4.40;4.00;;;10.00;99.90;;;;;;5067254;28;20211;-69
2022/09/28 07:00:14;;;;;;;7.03;4.80;;;10.10;99.90;;;;;;5067452;28;20991;-69
2022/09/28 07:02:41;;;;;;;5.30;4.83;;;10.10;99.90;;;;;;5067424;28;20203;-69
2022/09/28 07:05:09;;;;;;;5.27;4.77;;;10.20;99.90;;;;;;5047937;28;20207;-68
2022/09/28 07:07:35;;;;;;;5.20;4.80;;;10.20;99.90;;;;;;5027236;28;20235;-68
2022/09/28 07:10:02;;;;;;;4.87;4.47;;;10.30;99.90;;;;;;5027201;28;20219;-69
2022/09/28 07:12:30;;;;;;;5.00;4.60;;;10.30;99.90;;;;;;5026990;28;20676;-70
2022/09/28 07:14:58;;;;;;;5.40;4.93;;;10.40;99.90;;;;;;5027788;28;20208;-68
2022/09/28 07:17:24;;;;;;;5.30;4.87;;;10.40;99.90;;;;;;5039366;28;20208;-68
2022/09/28 07:19:57;;;;;;;4.63;4.23;;;10.40;99.90;;;;;;5041777;28;20667;-68
2022/09/28 07:22:24;;;;;;;5.07;4.77;;;10.50;99.90;;;;;;5047215;28;20254;-68
2022/09/28 07:24:50;;;;;;;5.37;4.97;;;10.60;99.90;;;;;;5045242;28;20243;-68
2022/09/28 07:27:18;;;;;;;5.40;4.93;;;10.60;99.90;;;;;;5044380;28;20770;-68
2022/09/28 07:29:45;;;;;;;4.77;4.47;;;10.70;99.90;;;;;;5044347;28;20716;-68
2022/09/28 07:32:13;;;;;;;5.63;5.10;;;10.70;99.90;;;;;;5044726;28;20747;-68
2022/09/28 07:34:42;;;;;;;8.23;7.53;;;10.70;99.90;;;;;;5034745;28;20250;-68
2022/09/28 07:37:10;;;;;;;5.37;4.97;;;10.80;99.90;;;;;;5041644;28;20207;-68
2022/09/28 07:41:10;;;;;;;5.20;4.53;;;10.80;99.90;;;;;;5045211;28;20345;-68
2022/09/28 07:42:28;;;;;;;5.13;4.70;;;10.90;99.90;;;;;;5044065;28;20196;-68
2022/09/28 07:44:55;;;;;;;4.57;4.27;;;11.00;99.90;;;;;;5044465;28;20307;-68
2022/09/28 07:47:25;;;;;;;4.60;4.20;;;11.00;99.90;;;;;;5043164;28;20259;-68
2022/09/28 07:49:53;;;;;;;5.30;4.87;;;11.20;99.90;;;;;;5033434;28;20242;-69
2022/09/28 07:52:23;;;;;;;7.70;4.80;;;11.20;99.90;;;;;;5024943;28;20208;-69
2022/09/28 07:54:51;;;;;;;5.10;4.70;;;11.30;99.90;;;;;;5024944;28;20296;-69
2022/09/28 07:57:18;;;;;;;4.87;4.53;;;11.30;99.90;;;;;;5026795;28;20209;-69
2022/09/28 07:59:45;;;;;;;5.13;4.63;;;11.40;99.90;;;;;;5034407;28;20208;-69
2022/09/28 08:02:13;;;;;;;4.87;4.47;;;11.40;99.90;;;;;;5044437;28;20216;-69
2022/09/28 08:04:41;;;;;;;5.27;4.87;;;11.50;99.90;;;;;;5044963;28;20212;-69
2022/09/28 08:07:10;;;;;;;4.87;4.43;;;11.40;99.90;;;;;;5044613;28;20236;-69
2022/09/28 08:09:37;;;;;;;5.37;4.87;;;11.50;99.90;;;;;;5036626;28;20710;-69
2022/09/28 08:12:04;;;;;;;7.77;4.53;;;11.50;99.90;;;;;;5024674;28;20686;-69
2022/09/28 08:14:32;;;;;;;4.90;4.50;;;11.50;99.90;;;;;;5024927;28;20220;-68
2022/09/28 08:16:59;;;;;;;5.20;4.70;;;11.60;99.90;;;;;;5024730;28;20283;-69
2022/09/28 08:19:26;;;;;;;5.40;5.00;;;11.60;99.90;;;;;;5045355;28;20216;-69
2022/09/28 08:21:53;;;;;;;5.00;4.50;;;11.50;99.90;;;;;;5045232;28;20214;-69
2022/09/28 08:24:20;;;;;;;5.53;5.13;;;11.50;99.90;;;;;;5048186;28;20252;-69
2022/09/28 08:26:46;;;;;;;6.83;5.40;;;11.50;99.90;;;;;;5047421;28;20216;-69
2022/09/28 08:29:14;;;;;;;5.30;4.93;;;11.50;99.90;;;;;;5047704;28;20722;-69
2022/09/28 08:31:40;;;;;;;5.07;4.20;;;11.50;99.90;;;;;;5040138;28;20205;-69
2022/09/28 08:34:07;;;;;;;5.20;4.80;;;11.60;99.90;;;;;;5028701;28;20205;-69
2022/09/28 08:36:34;;;;;;;4.43;4.13;;;11.50;99.90;;;;;;5029261;28;20734;-69
2022/09/28 08:39:02;;;;;;;7.80;4.90;;;11.50;99.90;;;;;;5046834;28;20211;-69
2022/09/28 08:41:38;;;;;;;4.70;4.40;;;11.60;99.90;;;;;;5046523;28;20206;-69
2022/09/28 08:44:26;;;;;;;4.60;4.30;;;11.60;99.90;;;;;;5047685;28;20647;-69
2022/09/28 08:46:58;;;;;;;4.43;4.13;;;11.60;99.90;;;;;;5039615;28;20216;-69
2022/09/28 08:49:29;;;;;;;4.90;4.40;;;11.60;99.90;;;;;;5039961;28;20204;-69
2022/09/28 08:52:00;;;;;;;4.60;4.20;;;11.70;99.90;;;;;;5048009;28;20200;-69
2022/09/28 08:54:44;;;;;;;4.70;4.30;;;11.70;99.90;;;;;;5046718;28;20207;-70
2022/09/28 08:57:15;;;;;;;5.33;4.33;;;11.80;99.90;;;;;;5067682;28;20227;-70
2022/09/28 08:59:49;;;;;;;4.47;4.00;;;11.80;99.90;;;;;;5054259;28;20204;-70
2022/09/28 09:02:20;;;;;;;4.37;4.07;;;11.90;99.90;;;;;;5047466;28;20279;-70
2022/09/28 09:04:46;;;;;;;6.47;4.47;;;12.00;99.90;;;;;;5042038;28;20655;-69
2022/09/28 09:07:29;;;;;;;4.37;4.07;;;12.00;99.90;;;;;;5046746;28;20231;-69
2022/09/28 09:10:11;;;;;;;4.40;4.03;;;12.10;99.90;;;;;;5047076;28;20200;-69
2022/09/28 09:12:46;;;;;;;4.00;3.73;;;12.30;99.90;;;;;;5047513;28;20271;-69
2022/09/28 09:15:33;;;;;;;4.37;4.00;;;12.50;99.90;;;;;;5047522;28;20531;-69
2022/09/28 09:18:12;;;;;;;4.30;3.90;;;12.50;99.90;;;;;;5027384;28;20205;-69
2022/09/28 09:20:47;;;;;;;3.57;3.27;;;12.60;99.90;;;;;;5042986;28;20617;-70
2022/09/28 09:23:19;;;;;;;4.43;3.33;;;12.60;99.90;;;;;;5047266;28;20236;-70
2022/09/28 09:25:52;;;;;;;3.17;2.90;;;12.70;99.90;;;;;;5062599;28;20595;-69
2022/09/28 09:28:52;;;;;;;2.67;2.57;;;12.60;99.90;;;;;;5046513;28;20266;-70
2022/09/28 09:31:28;;;;;;;3.20;3.00;;;12.70;99.90;;;;;;5046684;28;20200;-69
2022/09/28 09:34:16;;;;;;;3.00;2.80;;;12.70;99.90;;;;;;5046433;28;20200;-69
2022/09/28 09:37:07;;;;;;;3.37;3.17;;;12.70;99.90;;;;;;5047165;28;20205;-69
2022/09/28 09:39:47;;;;;;;3.03;2.77;;;12.80;99.90;;;;;;5045499;28;20582;-70
2022/09/28 09:42:28;;;;;;;2.30;2.20;;;12.70;99.90;;;;;;5031612;28;20197;-70
2022/09/28 09:45:15;;;;;;;2.13;1.93;;;12.70;99.90;;;;;;5037495;28;20729;-70
2022/09/28 09:47:45;;;;;;;1.80;1.70;;;12.70;99.90;;;;;;5035559;28;20221;-69
2022/09/28 09:50:24;;;;;;;1.90;1.80;;;12.80;99.90;;;;;;5039257;28;20208;-69
2022/09/28 09:52:56;;;;;;;1.80;1.70;;;12.90;99.90;;;;;;5036462;28;20254;-69
2022/09/28 09:55:27;;;;;;;1.50;1.40;;;12.90;99.90;;;;;;5041498;28;20215;-69
2022/09/28 09:58:02;;;;;;;1.73;1.30;;;12.90;99.90;;;;;;5036834;28;20201;-69
2022/09/28 10:00:29;;;;;;;2.00;1.47;;;12.80;99.90;;;;;;5039552;28;20199;-69
2022/09/28 10:02:59;;;;;;;1.97;1.47;;;12.80;99.90;;;;;;5040631;28;20205;-69
2022/09/28 10:05:29;;;;;;;1.57;1.30;;;12.90;99.90;;;;;;5036657;28;20207;-70
2022/09/28 10:08:01;;;;;;;3.03;1.40;;;13.00;99.90;;;;;;5032012;28;20221;-69
2022/09/28 10:10:29;;;;;;;2.00;0.97;;;13.00;99.90;;;;;;5046180;28;20218;-69
2022/09/28 10:12:57;;;;;;;2.03;1.30;;;13.00;99.90;;;;;;5045325;28;20216;-69
2022/09/28 10:15:27;;;;;;;2.37;1.23;;;12.90;99.90;;;;;;5046500;28;20562;-69
2022/09/28 10:17:56;;;;;;;1.43;1.30;;;12.90;99.90;;;;;;5042580;28;20366;-69
2022/09/28 10:20:24;;;;;;;1.77;1.20;;;12.90;99.90;;;;;;5037178;28;20655;-69
2022/09/28 10:22:52;;;;;;;2.63;1.47;;;12.80;99.90;;;;;;5039229;28;20220;-70
2022/09/28 10:25:19;;;;;;;0.87;0.87;;;12.80;99.90;;;;;;5041710;28;20204;-70
2022/09/28 10:27:51;;;;;;;2.20;1.20;;;12.90;99.90;;;;;;5032909;28;20722;-70
2022/09/28 10:30:22;;;;;;;2.63;0.93;;;12.90;99.90;;;;;;5041638;28;20671;-70
2022/09/28 10:32:51;;;;;;;2.13;1.10;;;13.00;99.90;;;;;;5029102;28;20279;-69
2022/09/28 10:35:25;;;;;;;1.20;1.03;;;13.10;99.90;;;;;;5034796;28;20204;-70
2022/09/28 10:37:58;;;;;;;1.10;1.00;;;13.20;99.90;;;;;;5038843;28;20204;-70
2022/09/28 10:40:34;;;;;;;0.80;0.80;;;13.40;99.90;;;;;;5033175;28;21074;-69
2022/09/28 10:43:02;;;;;;;2.43;1.10;;;13.50;99.90;;;;;;5025636;28;20205;-70
2022/09/28 10:45:35;;;;;;;2.27;0.97;;;13.60;99.90;;;;;;5029868;28;20288;-70
2022/09/28 10:48:06;;;;;;;1.10;0.80;;;13.60;99.90;;;;;;5034552;28;20216;-69
2022/09/28 10:50:34;;;;;;;2.37;1.10;;;13.40;99.90;;;;;;5034029;28;20283;-70
2022/09/28 10:53:12;;;;;;;0.97;0.90;;;13.20;99.90;;;;;;5031346;28;20224;-69
2022/09/28 10:55:39;;;;;;;1.37;1.17;;;13.10;99.90;;;;;;5037380;28;20204;-69
2022/09/28 10:58:25;;;;;;;0.80;0.80;;;13.00;99.90;;;;;;5032198;28;20208;-69
2022/09/28 11:01:00;;;;;;;2.67;1.00;;;13.00;99.90;;;;;;5036476;28;20580;-69
2022/09/28 11:03:29;;;;;;;2.30;0.90;;;12.80;99.90;;;;;;5035374;28;20200;-69
2022/09/28 11:05:57;;;;;;;1.30;1.20;;;12.70;99.90;;;;;;5033567;28;20247;-69
2022/09/28 11:08:28;;;;;;;1.10;1.10;;;12.50;99.90;;;;;;5037678;28;20252;-68
2022/09/28 11:11:08;;;;;;;1.73;1.27;;;12.40;99.90;;;;;;5042989;28;20298;-68
2022/09/28 11:13:49;;;;;;;7.13;4.57;;;12.20;99.90;;;;;;5035662;28;20212;-68
2022/09/28 11:16:30;;;;;;;1.43;1.40;;;12.20;99.90;;;;;;5038506;28;20554;-70
2022/09/28 11:18:58;;;;;;;2.53;2.43;;;12.10;99.90;;;;;;5038842;28;20212;-69
2022/09/28 11:21:28;;;;;;;1.60;1.50;;;11.90;99.90;;;;;;5033042;28;20203;-69
2022/09/28 11:23:57;;;;;;;1.50;1.40;;;11.80;99.90;;;;;;5039041;28;20715;-69
2022/09/28 11:26:24;;;;;;;3.10;1.60;;;11.80;99.90;;;;;;5037905;28;20203;-69
2022/09/28 11:28:52;;;;;;;1.50;1.40;;;11.70;99.90;;;;;;5033159;28;20228;-70
2022/09/28 11:31:27;;;;;;;1.63;1.30;;;11.60;99.90;;;;;;5034509;28;20293;-70
2022/09/28 11:34:05;;;;;;;1.33;1.27;;;11.70;99.90;;;;;;5036968;28;20200;-70
2022/09/28 11:36:44;;;;;;;1.30;1.30;;;11.80;99.90;;;;;;5035513;28;20196;-70
2022/09/28 11:39:17;;;;;;;1.40;1.30;;;11.90;99.90;;;;;;5036001;28;20199;-70
2022/09/28 11:41:57;;;;;;;1.60;1.50;;;12.00;99.90;;;;;;5036173;28;20293;-70
2022/09/28 11:44:43;;;;;;;3.40;1.50;;;12.00;99.90;;;;;;5038345;28;20196;-70
2022/09/28 11:47:43;;;;;;;2.50;1.50;;;11.80;99.90;;;;;;5031949;28;20197;-69
2022/09/28 11:50:20;;;;;;;3.20;1.10;;;11.60;99.90;;;;;;5026799;28;20726;-69
2022/09/28 11:52:55;;;;;;;1.40;1.07;;;11.50;99.90;;;;;;5037202;28;20274;-70
2022/09/28 11:55:27;;;;;;;0.80;0.80;;;11.40;99.90;;;;;;5040572;28;20214;-70
2022/09/28 11:58:01;;;;;;;0.87;0.87;;;11.40;99.90;;;;;;5035495;28;20224;-69
2022/09/28 12:00:28;;;;;;;1.23;0.83;;;11.40;99.90;;;;;;5035716;28;20246;-70
2022/09/28 12:03:00;;;;;;;0.93;0.70;;;11.40;99.90;;;;;;5034011;28;20215;-70
2022/09/28 12:05:31;;;;;;;1.43;0.80;;;11.50;99.90;;;;;;5037327;28;20227;-70
2022/09/28 12:08:03;;;;;;;0.67;0.67;;;11.50;99.90;;;;;;5041629;28;20251;-70
2022/09/28 12:10:38;;;;;;;0.73;0.73;;;11.60;99.90;;;;;;5039322;28;20205;-70
2022/09/28 12:13:10;;;;;;;1.30;0.70;;;11.70;99.90;;;;;;5030816;28;20216;-69
2022/09/28 12:15:45;;;;;;;1.60;0.90;;;11.80;99.90;;;;;;5039567;28;20188;-70
2022/09/28 12:18:18;;;;;;;0.87;0.70;;;11.80;99.90;;;;;;5039002;28;20570;-70
2022/09/28 12:20:51;;;;;;;0.87;0.87;;;11.90;99.90;;;;;;5045198;28;20200;-68
2022/09/28 12:23:24;;;;;;;0.70;0.70;;;12.00;99.90;;;;;;5033492;28;20232;-68
2022/09/28 12:25:57;;;;;;;2.77;2.57;;;12.10;99.90;;;;;;5039844;28;20216;-68
2022/09/28 12:28:31;;;;;;;1.00;1.00;;;12.00;99.90;;;;;;5038090;28;20550;-69
2022/09/28 12:31:05;;;;;;;3.20;2.73;;;12.00;99.90;;;;;;5044173;28;20199;-69
2022/09/28 12:33:32;;;;;;;0.77;0.77;;;12.10;99.90;;;;;;5041362;28;20198;-69
2022/09/28 12:36:13;;;;;;;0.47;0.47;;;12.10;99.90;;;;;;5033178;28;20201;-69
2022/09/28 12:38:55;;;;;;;0.97;0.40;;;12.20;99.90;;;;;;5040902;28;20681;-69
2022/09/28 12:41:30;;;;;;;0.40;0.40;;;12.30;99.90;;;;;;5035619;28;20193;-69
2022/09/28 12:44:11;;;;;;;0.40;0.40;;;12.40;99.90;;;;;;5032482;28;20188;-70
2022/09/28 12:46:49;;;;;;;1.23;0.60;;;12.50;99.90;;;;;;5035341;28;20671;-69
2022/09/28 12:49:30;;;;;;;0.80;0.60;;;12.60;99.90;;;;;;5037105;28;20224;-69
2022/09/28 12:52:04;;;;;;;0.30;0.30;;;12.70;99.90;;;;;;5035576;28;20191;-69
2022/09/28 12:54:49;;;;;;;0.30;0.30;;;12.70;99.90;;;;;;5043346;28;20206;-68
2022/09/28 12:57:34;;;;;;;0.27;0.27;;;12.60;99.90;;;;;;5038014;28;20284;-68
2022/09/28 13:00:05;;;;;;;0.43;0.43;;;12.80;99.90;;;;;;5039281;28;20398;-68
2022/09/28 13:02:58;;;;;;;0.50;0.50;;;13.00;99.90;;;;;;5041524;28;20193;-68
2022/09/28 13:05:59;;;;;;;0.57;0.33;;;13.10;99.90;;;;;;5036572;28;20311;-68
2022/09/28 13:08:36;;;;;;;0.20;0.20;;;13.30;99.90;;;;;;5035897;28;20288;-68
2022/09/28 13:11:15;;;;;;;0.53;0.40;;;13.20;99.90;;;;;;5036244;28;20197;-68
2022/09/28 13:13:53;;;;;;;0.30;0.30;;;13.20;99.90;;;;;;5035555;28;20255;-68